Lunamar — 5BNV2 — position and weather

sailwx.info

Track history (hours):
 
Tides and Currents Weather Stations Pressure Air Temp Water Temp Dewpoint Dewpoint Depression Visibility Wind Speed Wind Dir Waves Ship Positions

Lunamar

Last reported at 2016-May-26 00:33 UTC. Time now 2016-May-26 00:44 UTC.
Position N 55°05' E 014°03'.

Length 90 m; draft 5.2 m.

Type: Cargo ship. MMSI: 212762000.

Date/timePositionNaut miles runAvg speedWind from/ knotsBaromVisibWave heightAir tempDewpointWater temp
2016-May-26 00:33N 55°05' E 014°03'1010.1
2016-May-25 23:33N 55°12' E 014°16'1010.2
2016-May-25 22:33N 55°20' E 014°27'1010.0
2016-May-25 21:33N 55°27' E 014°40'1010.2
2016-May-25 20:33N 55°32' E 014°55'1010.1
2016-May-25 19:33N 55°38' E 015°10'  
2016-May-19 18:28N 55°55' E 014°42'9 9.7
2016-May-19 17:33N 55°55' E 014°27'4 3.4
2016-May-19 16:24N 55°56' E 014°20'0 0.0
2016-May-19 15:30N 55°56' E 014°20'0 0.0
2016-May-19 14:18N 55°56' E 014°20'0 0.0
2016-May-19 13:18N 55°56' E 014°20'0 0.0
2016-May-19 12:30N 55°56' E 014°20'0 0.0
2016-May-19 11:30N 55°56' E 014°20'0 0.0
2016-May-19 10:30N 55°56' E 014°20'0 0.0
2016-May-19 09:30N 55°56' E 014°20'0 0.0
2016-May-19 08:30N 55°56' E 014°20'0 0.0
2016-May-19 07:30N 55°56' E 014°20'0 0.0
2016-May-19 06:30N 55°56' E 014°20'0 0.0
2016-May-19 05:30N 55°56' E 014°20'0 0.0
2016-May-19 04:30N 55°56' E 014°20'0 0.0
2016-May-19 03:30N 55°56' E 014°20'0 0.0
2016-May-19 02:30N 55°56' E 014°20'0 0.0
2016-May-19 01:24N 55°56' E 014°20'0 0.0
2016-May-19 00:30N 55°56' E 014°20'0 0.0
2016-May-18 23:24N 55°56' E 014°20'0 0.0
2016-May-18 22:30N 55°56' E 014°20'0 0.0
2016-May-18 21:18N 55°56' E 014°20'0 0.0
2016-May-18 20:30N 55°56' E 014°20'0 0.0
2016-May-18 19:24N 55°56' E 014°20'0 0.0
2016-May-18 18:30N 55°56' E 014°20'0 0.0
2016-May-18 17:30N 55°56' E 014°20'0 0.0
2016-May-18 16:30N 55°56' E 014°20'0 0.0
2016-May-18 15:30N 55°56' E 014°20'0 0.0
2016-May-18 14:30N 55°56' E 014°20'0 0.0
2016-May-18 13:24N 55°56' E 014°20'0 0.0
2016-May-18 12:30N 55°56' E 014°20'0 0.0
2016-May-18 08:32N 55°56' E 014°20'7 4.9
2016-May-18 07:03N 55°51' E 014°30'510.1
2016-May-18 06:33N 55°46' E 014°32'9 9.3
2016-May-18 05:33N 55°37' E 014°35'8 7.6
2016-May-18 04:33N 55°30' E 014°37'7 6.9
2016-May-18 03:33N 55°23' E 014°36'8 7.8
2016-May-18 02:33N 55°17' E 014°28'9 8.9
2016-May-18 01:33N 55°10' E 014°18'10 9.9
2016-May-18 00:33N 55°02' E 014°07'1010.0
2016-May-17 23:32N 54°53' E 014°00'10 9.7
2016-May-17 22:33N 54°43' E 013°58'  
Track history (hours):
 
Tides and Currents Weather Stations Pressure Air Temp Water Temp Dewpoint Dewpoint Depression Visibility Wind Speed Wind Dir Waves Ship Positions

Lunamar

Last reported at 2016-May-26 00:33 UTC. Time now 2016-May-26 00:44 UTC.
Position N 55°05' E 014°03'.

Length 90 m; draft 5.2 m.

Type: Cargo ship. MMSI: 212762000.

Date/timePositionNaut miles runAvg speedWind from/ knotsBaromVisibWave heightAir tempDewpointWater temp
2016-May-26 00:33N 55°05' E 014°03'1010.1
2016-May-25 23:33N 55°12' E 014°16'1010.2
2016-May-25 22:33N 55°20' E 014°27'1010.0
2016-May-25 21:33N 55°27' E 014°40'1010.2
2016-May-25 20:33N 55°32' E 014°55'1010.1
2016-May-25 19:33N 55°38' E 015°10'  
2016-May-19 18:28N 55°55' E 014°42'9 9.7
2016-May-19 17:33N 55°55' E 014°27'4 3.4
2016-May-19 16:24N 55°56' E 014°20'0 0.0
2016-May-19 15:30N 55°56' E 014°20'0 0.0
2016-May-19 14:18N 55°56' E 014°20'0 0.0
2016-May-19 13:18N 55°56' E 014°20'0 0.0
2016-May-19 12:30N 55°56' E 014°20'0 0.0
2016-May-19 11:30N 55°56' E 014°20'0 0.0
2016-May-19 10:30N 55°56' E 014°20'0 0.0
2016-May-19 09:30N 55°56' E 014°20'0 0.0
2016-May-19 08:30N 55°56' E 014°20'0 0.0
2016-May-19 07:30N 55°56' E 014°20'0 0.0
2016-May-19 06:30N 55°56' E 014°20'0 0.0
2016-May-19 05:30N 55°56' E 014°20'0 0.0
2016-May-19 04:30N 55°56' E 014°20'0 0.0
2016-May-19 03:30N 55°56' E 014°20'0 0.0
2016-May-19 02:30N 55°56' E 014°20'0 0.0
2016-May-19 01:24N 55°56' E 014°20'0 0.0
2016-May-19 00:30N 55°56' E 014°20'0 0.0
2016-May-18 23:24N 55°56' E 014°20'0 0.0
2016-May-18 22:30N 55°56' E 014°20'0 0.0
2016-May-18 21:18N 55°56' E 014°20'0 0.0
2016-May-18 20:30N 55°56' E 014°20'0 0.0
2016-May-18 19:24N 55°56' E 014°20'0 0.0
2016-May-18 18:30N 55°56' E 014°20'0 0.0
2016-May-18 17:30N 55°56' E 014°20'0 0.0
2016-May-18 16:30N 55°56' E 014°20'0 0.0
2016-May-18 15:30N 55°56' E 014°20'0 0.0
2016-May-18 14:30N 55°56' E 014°20'0 0.0
2016-May-18 13:24N 55°56' E 014°20'0 0.0
2016-May-18 12:30N 55°56' E 014°20'0 0.0
2016-May-18 08:32N 55°56' E 014°20'7 4.9
2016-May-18 07:03N 55°51' E 014°30'510.1
2016-May-18 06:33N 55°46' E 014°32'9 9.3
2016-May-18 05:33N 55°37' E 014°35'8 7.6
2016-May-18 04:33N 55°30' E 014°37'7 6.9
2016-May-18 03:33N 55°23' E 014°36'8 7.8
2016-May-18 02:33N 55°17' E 014°28'9 8.9
2016-May-18 01:33N 55°10' E 014°18'10 9.9
2016-May-18 00:33N 55°02' E 014°07'1010.0
2016-May-17 23:32N 54°53' E 014°00'10 9.7
2016-May-17 22:33N 54°43' E 013°58'  

Dump ship's entire track history